Terminal Aerodrome Forecast
Issued by NWS

Home | Current Version | Previous Version | Text Only | Print | Product List | Glossary On
Versions: 1 2 3 4 5 6 7 8 9 10 11 12 13 14 15 16 17 18 19 20 21 22 23 24
000
FTUS45 KGJT 302341
TAFCNY
TAF
KCNY 302341Z 3100/3124 VRB05KT P6SM FEW100 FEW200
     FM310200 31006KT P6SM FEW100 SCT200
     FM311000 19006KT P6SM SCT150
     FM311900 23015G25KT P6SM FEW110 SCT150
     FM312200 29015G25KT P6SM FEW110 SCT150=

USA.gov is the U.S. government's official web portal to all federal, state and local government web resources and services.